AAR203 KLAX-RKSI
Flight info
| Callsign | AAR203 |
|---|---|
| Flight time | N/A |
| Altitude | 36000 |
| Route | SUMMR2 MCKEY DCT LIBBO/N0493F340 DCT BRINY DCT BOARS DCT AMAKR DCT REDWD/N0488F360 DCT UNVER DCT 46N140W 51N150W 54N160W DCT CRYPT DCT ALDOZ DCT ONEIL DCT NIKLL/N0503F370 R220 NOGAL/N0487F380 R220 NODAN R217 SDE Y512 GTC L512 TENAS/N0495F360 Y437 LESBU/N0500F340 Y437 KAE Y697 KARBU KARBU3C |
| Aircraft | A359/H-SDE2E3GHIJ3J4J5LM1ORWXY/LB1D1 |
Departure
| Time | 2026-05-05 19:45 |
|---|---|
| Airport | Los Angeles International Airport (KLAX) |
Arrival
| Time | N/A |
|---|---|
| Airport | Incheon International Airport (RKSI) |
| Time | Latitude | Longitude | Altitude | Speed | Heading |
|---|---|---|---|---|---|
| 2026-05-05 19:14 | 33.94099 | -118.41084 | 101 ft | 0 kts | 83° |
| 2026-05-05 19:31 | 33.94097 | -118.41104 | 102 ft | 4 kts | 83° |
| 2026-05-05 19:31 | 33.94094 | -118.41132 | 100 ft | 1 kts | 83° |
| 2026-05-05 19:31 | 33.94091 | -118.41158 | 99 ft | 4 kts | 66° |
| 2026-05-05 19:31 | 33.94079 | -118.41180 | 100 ft | 4 kts | 32° |
| 2026-05-05 19:32 | 33.94060 | -118.41189 | 101 ft | 4 kts | 357° |
| 2026-05-05 19:32 | 33.94052 | -118.41189 | 99 ft | 0 kts | 353° |
| 2026-05-05 19:35 | 33.94061 | -118.41190 | 101 ft | 5 kts | 353° |
| 2026-05-05 19:35 | 33.94120 | -118.41199 | 102 ft | 10 kts | 353° |
| 2026-05-05 19:35 | 33.94196 | -118.41210 | 102 ft | 12 kts | 353° |
| 2026-05-05 19:35 | 33.94282 | -118.41223 | 102 ft | 13 kts | 353° |
| 2026-05-05 19:36 | 33.94379 | -118.41237 | 102 ft | 15 kts | 353° |
| 2026-05-05 19:36 | 33.94484 | -118.41252 | 102 ft | 16 kts | 353° |
| 2026-05-05 19:36 | 33.94596 | -118.41269 | 102 ft | 17 kts | 353° |
| 2026-05-05 19:36 | 33.94713 | -118.41287 | 104 ft | 17 kts | 352° |
| 2026-05-05 19:37 | 33.94782 | -118.41280 | 105 ft | 6 kts | 41° |
| 2026-05-05 19:37 | 33.94796 | -118.41233 | 106 ft | 6 kts | 80° |
| 2026-05-05 19:37 | 33.94803 | -118.41175 | 106 ft | 8 kts | 82° |
| 2026-05-05 19:37 | 33.94811 | -118.41103 | 107 ft | 10 kts | 83° |
| 2026-05-05 19:38 | 33.94820 | -118.41015 | 107 ft | 12 kts | 83° |
| 2026-05-05 19:38 | 33.94831 | -118.40911 | 106 ft | 14 kts | 82° |
| 2026-05-05 19:38 | 33.94844 | -118.40789 | 106 ft | 16 kts | 82° |
| 2026-05-05 19:38 | 33.94860 | -118.40652 | 106 ft | 18 kts | 82° |
| 2026-05-05 19:39 | 33.94876 | -118.40500 | 105 ft | 19 kts | 84° |
| 2026-05-05 19:39 | 33.94891 | -118.40337 | 106 ft | 19 kts | 82° |
| 2026-05-05 19:39 | 33.94906 | -118.40190 | 106 ft | 18 kts | 83° |
| 2026-05-05 19:39 | 33.94919 | -118.40052 | 107 ft | 14 kts | 83° |
| 2026-05-05 19:40 | 33.94931 | -118.39960 | 106 ft | 8 kts | 72° |
| 2026-05-05 19:40 | 33.94942 | -118.39937 | 107 ft | 0 kts | 52° |
| 2026-05-05 19:42 | 33.94944 | -118.39935 | 107 ft | 2 kts | 48° |
| 2026-05-05 19:42 | 33.94953 | -118.39927 | 107 ft | 1 kts | 35° |
| 2026-05-05 19:42 | 33.94975 | -118.39918 | 109 ft | 3 kts | 15° |
| 2026-05-05 19:43 | 33.94982 | -118.39916 | 111 ft | 1 kts | 9° |
| 2026-05-05 19:43 | 33.95011 | -118.39917 | 112 ft | 5 kts | 353° |
| 2026-05-05 19:43 | 33.95040 | -118.39932 | 113 ft | 3 kts | 309° |
| 2026-05-05 19:43 | 33.95039 | -118.39950 | 112 ft | 2 kts | 266° |
| 2026-05-05 19:44 | 33.95037 | -118.39987 | 112 ft | 18 kts | 265° |
| 2026-05-05 19:44 | 33.94999 | -118.40371 | 116 ft | 73 kts | 262° |
| 2026-05-05 19:44 | 33.94915 | -118.41183 | 112 ft | 121 kts | 263° |
| 2026-05-05 19:44 | 33.94800 | -118.42347 | 217 ft | 151 kts | 262° |
| 2026-05-05 19:45 | 33.94691 | -118.43562 | 769 ft | 146 kts | 262° |
| 2026-05-05 19:45 | 33.94576 | -118.44775 | 1343 ft | 148 kts | 259° |
| 2026-05-05 19:45 | 33.94434 | -118.46070 | 1574 ft | 165 kts | 260° |
| 2026-05-05 19:45 | 33.94296 | -118.47513 | 1805 ft | 183 kts | 263° |
| 2026-05-05 19:46 | 33.94242 | -118.49122 | 2270 ft | 203 kts | 267° |
| 2026-05-05 19:46 | 33.94207 | -118.50886 | 2822 ft | 220 kts | 268° |
| 2026-05-05 19:46 | 33.94110 | -118.52814 | 3183 ft | 241 kts | 264° |
| 2026-05-05 19:46 | 33.93940 | -118.54873 | 3605 ft | 252 kts | 264° |
| 2026-05-05 19:47 | 33.93760 | -118.56998 | 4122 ft | 258 kts | 264° |
| 2026-05-05 19:47 | 33.93583 | -118.59163 | 4675 ft | 262 kts | 265° |
| 2026-05-05 19:47 | 33.93407 | -118.61361 | 5241 ft | 266 kts | 265° |
| 2026-05-05 19:47 | 33.93230 | -118.63590 | 5860 ft | 268 kts | 265° |
| 2026-05-05 19:48 | 33.93054 | -118.65840 | 6457 ft | 272 kts | 266° |
| 2026-05-05 19:48 | 33.92878 | -118.68125 | 7042 ft | 275 kts | 266° |
| 2026-05-05 19:48 | 33.92699 | -118.70429 | 7690 ft | 277 kts | 266° |
| 2026-05-05 19:48 | 33.92518 | -118.72749 | 8347 ft | 279 kts | 266° |
| 2026-05-05 19:49 | 33.92336 | -118.75085 | 8996 ft | 282 kts | 267° |
| 2026-05-05 19:49 | 33.92214 | -118.76646 | 9427 ft | 284 kts | 267° |
| 2026-05-05 19:49 | 33.91965 | -118.79836 | 10226 ft | 291 kts | 267° |
| 2026-05-05 19:49 | 33.91776 | -118.82327 | 10486 ft | 307 kts | 267° |
| 2026-05-05 19:50 | 33.91736 | -118.84962 | 10716 ft | 323 kts | 273° |
| 2026-05-05 19:50 | 33.91814 | -118.87730 | 10970 ft | 339 kts | 274° |
| 2026-05-05 19:50 | 33.91909 | -118.90625 | 11215 ft | 354 kts | 274° |
| 2026-05-05 19:50 | 33.92004 | -118.93653 | 11456 ft | 368 kts | 274° |
| 2026-05-05 19:51 | 33.92099 | -118.96773 | 11813 ft | 377 kts | 274° |
| 2026-05-05 19:51 | 33.92261 | -118.99940 | 12346 ft | 380 kts | 279° |
| 2026-05-05 19:51 | 33.92989 | -119.02980 | 12896 ft | 380 kts | 296° |
| 2026-05-05 19:51 | 33.94289 | -119.05757 | 13477 ft | 382 kts | 302° |
| 2026-05-05 19:52 | 33.95710 | -119.08474 | 13995 ft | 385 kts | 302° |
| 2026-05-05 19:52 | 33.97145 | -119.11210 | 14486 ft | 388 kts | 302° |
| 2026-05-05 19:52 | 33.98586 | -119.13977 | 14989 ft | 391 kts | 302° |
| 2026-05-05 19:52 | 34.00052 | -119.16747 | 15519 ft | 393 kts | 305° |
| 2026-05-05 19:53 | 34.01842 | -119.19246 | 16026 ft | 396 kts | 318° |
| 2026-05-05 19:53 | 34.04018 | -119.21296 | 16553 ft | 398 kts | 324° |
| 2026-05-05 19:53 | 34.06287 | -119.23232 | 17047 ft | 401 kts | 324° |
| 2026-05-05 19:53 | 34.08577 | -119.25174 | 17561 ft | 404 kts | 324° |
| 2026-05-05 19:54 | 34.10849 | -119.27112 | 18051 ft | 407 kts | 324° |
| 2026-05-05 19:54 | 34.13163 | -119.29094 | 18518 ft | 409 kts | 324° |
| 2026-05-05 19:54 | 34.15522 | -119.31121 | 19019 ft | 411 kts | 324° |
| 2026-05-05 19:54 | 34.17856 | -119.33130 | 19501 ft | 414 kts | 324° |
| 2026-05-05 19:55 | 34.20174 | -119.35128 | 19974 ft | 416 kts | 324° |
| 2026-05-05 19:55 | 34.22538 | -119.37166 | 20469 ft | 418 kts | 325° |
| 2026-05-05 19:55 | 34.24908 | -119.39212 | 20989 ft | 420 kts | 325° |
| 2026-05-05 19:55 | 34.27293 | -119.41273 | 21500 ft | 422 kts | 325° |
| 2026-05-05 19:56 | 34.29687 | -119.43344 | 21987 ft | 424 kts | 325° |
| 2026-05-05 19:56 | 34.32094 | -119.45426 | 22484 ft | 426 kts | 326° |
| 2026-05-05 19:56 | 34.34510 | -119.47518 | 22964 ft | 429 kts | 326° |
| 2026-05-05 19:56 | 34.36944 | -119.49627 | 23437 ft | 431 kts | 326° |
| 2026-05-05 19:57 | 34.39383 | -119.51764 | 23836 ft | 434 kts | 324° |
| 2026-05-05 19:57 | 34.40932 | -119.53305 | 24103 ft | 438 kts | 320° |
| 2026-05-05 19:57 | 34.43746 | -119.56921 | 24561 ft | 444 kts | 313° |
| 2026-05-05 19:57 | 34.45757 | -119.59773 | 24954 ft | 446 kts | 313° |
| 2026-05-05 19:58 | 34.47773 | -119.62649 | 25287 ft | 449 kts | 313° |
| 2026-05-05 19:58 | 34.49805 | -119.65541 | 25656 ft | 452 kts | 314° |
| 2026-05-05 19:58 | 34.51850 | -119.68453 | 26033 ft | 455 kts | 314° |
| 2026-05-05 19:58 | 34.53907 | -119.71384 | 26407 ft | 457 kts | 314° |
| 2026-05-05 19:59 | 34.55972 | -119.74325 | 26779 ft | 460 kts | 314° |
| 2026-05-05 19:59 | 34.58051 | -119.77286 | 27116 ft | 462 kts | 314° |
| 2026-05-05 19:59 | 34.60145 | -119.80270 | 27435 ft | 465 kts | 315° |
| 2026-05-05 19:59 | 34.62244 | -119.83266 | 27806 ft | 467 kts | 315° |
| 2026-05-05 20:00 | 34.64355 | -119.86279 | 28164 ft | 469 kts | 315° |
| 2026-05-05 20:00 | 34.66474 | -119.89307 | 28458 ft | 472 kts | 315° |
| 2026-05-05 20:00 | 34.68607 | -119.92356 | 28750 ft | 475 kts | 316° |
| 2026-05-05 20:00 | 34.70748 | -119.95419 | 29066 ft | 476 kts | 316° |
| 2026-05-05 20:01 | 34.72899 | -119.98501 | 29251 ft | 480 kts | 316° |
| 2026-05-05 20:01 | 34.75057 | -120.01595 | 29589 ft | 481 kts | 316° |
| 2026-05-05 20:01 | 34.77204 | -120.04681 | 30173 ft | 475 kts | 316° |
| 2026-05-05 20:01 | 34.79346 | -120.07759 | 30477 ft | 477 kts | 316° |
| 2026-05-05 20:02 | 34.81492 | -120.10843 | 30684 ft | 479 kts | 316° |
| 2026-05-05 20:02 | 34.83643 | -120.13938 | 31014 ft | 479 kts | 316° |
| 2026-05-05 20:02 | 34.85793 | -120.17035 | 31295 ft | 479 kts | 316° |
| 2026-05-05 20:02 | 34.87950 | -120.20143 | 31562 ft | 480 kts | 316° |
| 2026-05-05 20:03 | 34.90103 | -120.23251 | 31885 ft | 480 kts | 316° |
| 2026-05-05 20:03 | 34.92254 | -120.26355 | 32153 ft | 480 kts | 316° |
| 2026-05-05 20:03 | 34.94405 | -120.29463 | 32419 ft | 480 kts | 316° |
| 2026-05-05 20:03 | 34.96558 | -120.32579 | 32665 ft | 481 kts | 316° |
| 2026-05-05 20:04 | 34.98710 | -120.35695 | 32941 ft | 480 kts | 316° |
| 2026-05-05 20:04 | 35.00858 | -120.38809 | 33168 ft | 480 kts | 316° |
| 2026-05-05 20:04 | 35.03014 | -120.41936 | 33375 ft | 481 kts | 316° |
| 2026-05-05 20:04 | 35.04440 | -120.44005 | 33507 ft | 482 kts | 316° |
| 2026-05-05 20:05 | 35.06599 | -120.47141 | 33714 ft | 482 kts | 316° |
| 2026-05-05 20:05 | 35.09461 | -120.51302 | 33954 ft | 484 kts | 316° |
| 2026-05-05 20:05 | 35.11626 | -120.54455 | 34195 ft | 484 kts | 316° |
| 2026-05-05 20:05 | 35.13813 | -120.57643 | 34424 ft | 484 kts | 316° |
| 2026-05-05 20:06 | 35.15973 | -120.60793 | 34613 ft | 484 kts | 316° |
| 2026-05-05 20:06 | 35.17406 | -120.62885 | 34731 ft | 484 kts | 315° |
| 2026-05-05 20:06 | 35.19566 | -120.66040 | 34906 ft | 484 kts | 315° |
| 2026-05-05 20:06 | 35.21725 | -120.69197 | 35066 ft | 485 kts | 315° |
| 2026-05-05 20:07 | 35.23887 | -120.72361 | 35241 ft | 485 kts | 315° |
| 2026-05-05 20:07 | 35.26050 | -120.75529 | 35418 ft | 485 kts | 315° |
| 2026-05-05 20:07 | 35.28211 | -120.78696 | 35616 ft | 484 kts | 315° |
| 2026-05-05 20:07 | 35.31064 | -120.82884 | 35855 ft | 483 kts | 315° |
| 2026-05-05 20:08 | 35.32517 | -120.85018 | 35985 ft | 483 kts | 314° |
| 2026-05-05 20:08 | 35.36836 | -120.91368 | 36079 ft | 488 kts | 314° |
| 2026-05-05 20:09 | 35.41196 | -120.97793 | 36079 ft | 491 kts | 314° |
| 2026-05-05 20:09 | 35.45556 | -121.04230 | 36080 ft | 490 kts | 315° |
| 2026-05-05 20:10 | 35.49915 | -121.10668 | 36082 ft | 490 kts | 315° |
| 2026-05-05 20:10 | 35.54334 | -121.17033 | 36082 ft | 490 kts | 316° |
| 2026-05-05 20:11 | 35.58774 | -121.23383 | 36082 ft | 490 kts | 316° |
| 2026-05-05 20:11 | 35.63207 | -121.29757 | 36086 ft | 490 kts | 316° |
| 2026-05-05 20:12 | 35.67628 | -121.36144 | 36085 ft | 491 kts | 316° |
| 2026-05-05 20:12 | 35.72049 | -121.42551 | 36086 ft | 491 kts | 316° |
| 2026-05-05 20:13 | 35.76468 | -121.48965 | 36096 ft | 491 kts | 316° |